sensor_id;sensor_type;location;lat;lon;timestamp;P1;durP1;ratioP1;P2;durP2;ratioP2
29380;SDS011;16364;52.490;13.326;2023-02-15T00:02:21;34.97;;;17.47;;
29380;SDS011;16364;52.490;13.326;2023-02-15T00:04:46;33.13;;;17.20;;
29380;SDS011;16364;52.490;13.326;2023-02-15T00:07:12;29.67;;;16.20;;
29380;SDS011;16364;52.490;13.326;2023-02-15T00:09:37;31.03;;;19.07;;
29380;SDS011;16364;52.490;13.326;2023-02-15T00:12:03;31.03;;;16.60;;
29380;SDS011;16364;52.490;13.326;2023-02-15T00:14:28;31.93;;;16.67;;
29380;SDS011;16364;52.490;13.326;2023-02-15T00:16:53;30.10;;;16.17;;
29380;SDS011;16364;52.490;13.326;2023-02-15T00:19:20;29.40;;;16.97;;
29380;SDS011;16364;52.490;13.326;2023-02-15T00:21:45;34.00;;;18.33;;
29380;SDS011;16364;52.490;13.326;2023-02-15T00:24:12;37.93;;;18.57;;
29380;SDS011;16364;52.490;13.326;2023-02-15T00:26:38;28.57;;;15.83;;
29380;SDS011;16364;52.490;13.326;2023-02-15T00:29:04;38.40;;;18.00;;
29380;SDS011;16364;52.490;13.326;2023-02-15T00:31:30;40.53;;;17.40;;
29380;SDS011;16364;52.490;13.326;2023-02-15T00:34:05;40.77;;;17.67;;
29380;SDS011;16364;52.490;13.326;2023-02-15T00:36:31;38.10;;;18.67;;
29380;SDS011;16364;52.490;13.326;2023-02-15T00:38:56;37.17;;;19.30;;
29380;SDS011;16364;52.490;13.326;2023-02-15T00:41:21;34.83;;;19.37;;
29380;SDS011;16364;52.490;13.326;2023-02-15T00:43:46;33.60;;;18.53;;
29380;SDS011;16364;52.490;13.326;2023-02-15T00:46:11;37.27;;;18.00;;
29380;SDS011;16364;52.490;13.326;2023-02-15T00:48:37;37.33;;;18.83;;
29380;SDS011;16364;52.490;13.326;2023-02-15T00:51:02;30.67;;;18.43;;
29380;SDS011;16364;52.490;13.326;2023-02-15T00:53:28;30.73;;;18.13;;
29380;SDS011;16364;52.490;13.326;2023-02-15T00:55:53;37.13;;;19.00;;
29380;SDS011;16364;52.490;13.326;2023-02-15T00:58:18;40.17;;;21.10;;
29380;SDS011;16364;52.490;13.326;2023-02-15T01:00:44;40.13;;;19.30;;
29380;SDS011;16364;52.490;13.326;2023-02-15T01:03:10;42.63;;;20.07;;
29380;SDS011;16364;52.490;13.326;2023-02-15T01:05:36;38.10;;;19.63;;
29380;SDS011;16364;52.490;13.326;2023-02-15T01:08:01;44.93;;;18.60;;
29380;SDS011;16364;52.490;13.326;2023-02-15T01:10:27;44.20;;;21.73;;
29380;SDS011;16364;52.490;13.326;2023-02-15T01:12:53;45.40;;;21.20;;
29380;SDS011;16364;52.490;13.326;2023-02-15T01:15:18;35.20;;;19.90;;
29380;SDS011;16364;52.490;13.326;2023-02-15T01:17:44;40.67;;;20.33;;
29380;SDS011;16364;52.490;13.326;2023-02-15T01:20:14;40.83;;;21.87;;
29380;SDS011;16364;52.490;13.326;2023-02-15T01:22:40;40.53;;;20.23;;
29380;SDS011;16364;52.490;13.326;2023-02-15T01:25:05;36.67;;;18.47;;
29380;SDS011;16364;52.490;13.326;2023-02-15T01:27:30;40.20;;;20.80;;
29380;SDS011;16364;52.490;13.326;2023-02-15T01:29:56;35.23;;;18.87;;
29380;SDS011;16364;52.490;13.326;2023-02-15T01:32:21;42.77;;;21.57;;
29380;SDS011;16364;52.490;13.326;2023-02-15T01:34:46;37.70;;;20.07;;
29380;SDS011;16364;52.490;13.326;2023-02-15T01:37:11;43.00;;;20.47;;
29380;SDS011;16364;52.490;13.326;2023-02-15T01:39:37;43.33;;;21.80;;
29380;SDS011;16364;52.490;13.326;2023-02-15T01:42:02;39.77;;;20.50;;
29380;SDS011;16364;52.490;13.326;2023-02-15T01:47:08;42.47;;;20.83;;
29380;SDS011;16364;52.490;13.326;2023-02-15T01:49:34;47.33;;;22.60;;
29380;SDS011;16364;52.490;13.326;2023-02-15T01:51:59;44.50;;;21.40;;
29380;SDS011;16364;52.490;13.326;2023-02-15T01:54:31;38.00;;;20.80;;
29380;SDS011;16364;52.490;13.326;2023-02-15T01:57:00;37.00;;;20.50;;
29380;SDS011;16364;52.490;13.326;2023-02-15T01:59:27;41.13;;;21.00;;
29380;SDS011;16364;52.490;13.326;2023-02-15T02:01:52;44.03;;;22.60;;
29380;SDS011;16364;52.490;13.326;2023-02-15T02:04:31;48.13;;;22.97;;
29380;SDS011;16364;52.490;13.326;2023-02-15T02:06:58;49.17;;;23.33;;
29380;SDS011;16364;52.490;13.326;2023-02-15T02:09:24;43.17;;;23.40;;
29380;SDS011;16364;52.490;13.326;2023-02-15T02:11:50;43.50;;;22.30;;
29380;SDS011;16364;52.490;13.326;2023-02-15T02:14:16;50.87;;;24.17;;
29380;SDS011;16364;52.490;13.326;2023-02-15T02:17:26;47.63;;;24.33;;
29380;SDS011;16364;52.490;13.326;2023-02-15T02:24:51;47.60;;;23.27;;
29380;SDS011;16364;52.490;13.326;2023-02-15T02:39:54;53.80;;;22.90;;
29380;SDS011;16364;52.490;13.326;2023-02-15T02:47:36;57.80;;;24.67;;
29380;SDS011;16364;52.490;13.326;2023-02-15T02:50:06;54.07;;;25.77;;
29380;SDS011;16364;52.490;13.326;2023-02-15T02:54:57;48.30;;;23.47;;
29380;SDS011;16364;52.490;13.326;2023-02-15T02:57:23;63.30;;;26.10;;
29380;SDS011;16364;52.490;13.326;2023-02-15T02:59:49;64.60;;;28.37;;
29380;SDS011;16364;52.490;13.326;2023-02-15T03:02:23;54.13;;;26.83;;
29380;SDS011;16364;52.490;13.326;2023-02-15T03:04:52;52.13;;;24.33;;
29380;SDS011;16364;52.490;13.326;2023-02-15T03:07:23;58.63;;;27.47;;
29380;SDS011;16364;52.490;13.326;2023-02-15T03:09:50;64.20;;;29.90;;
29380;SDS011;16364;52.490;13.326;2023-02-15T03:12:20;66.53;;;30.17;;
29380;SDS011;16364;52.490;13.326;2023-02-15T03:14:48;59.07;;;29.67;;
29380;SDS011;16364;52.490;13.326;2023-02-15T03:17:15;75.13;;;31.80;;
29380;SDS011;16364;52.490;13.326;2023-02-15T03:19:42;66.47;;;30.83;;
29380;SDS011;16364;52.490;13.326;2023-02-15T03:22:17;73.80;;;33.00;;
29380;SDS011;16364;52.490;13.326;2023-02-15T03:24:49;83.97;;;32.23;;
29380;SDS011;16364;52.490;13.326;2023-02-15T03:27:17;64.10;;;29.97;;
29380;SDS011;16364;52.490;13.326;2023-02-15T03:29:45;66.40;;;29.50;;
29380;SDS011;16364;52.490;13.326;2023-02-15T03:32:11;66.10;;;29.23;;
29380;SDS011;16364;52.490;13.326;2023-02-15T03:34:38;67.93;;;29.00;;
29380;SDS011;16364;52.490;13.326;2023-02-15T03:42:43;69.70;;;27.60;;
29380;SDS011;16364;52.490;13.326;2023-02-15T03:45:10;62.00;;;28.40;;
29380;SDS011;16364;52.490;13.326;2023-02-15T03:47:39;70.50;;;31.43;;
29380;SDS011;16364;52.490;13.326;2023-02-15T03:50:13;70.33;;;28.90;;
29380;SDS011;16364;52.490;13.326;2023-02-15T03:52:59;69.37;;;30.80;;
29380;SDS011;16364;52.490;13.326;2023-02-15T03:55:26;68.63;;;28.07;;
29380;SDS011;16364;52.490;13.326;2023-02-15T03:57:52;64.47;;;29.90;;
29380;SDS011;16364;52.490;13.326;2023-02-15T04:00:37;62.10;;;26.93;;
29380;SDS011;16364;52.490;13.326;2023-02-15T04:03:28;81.00;;;31.93;;
29380;SDS011;16364;52.490;13.326;2023-02-15T04:05:56;71.93;;;31.30;;
29380;SDS011;16364;52.490;13.326;2023-02-15T04:08:21;64.50;;;27.60;;
29380;SDS011;16364;52.490;13.326;2023-02-15T04:11:06;74.20;;;29.60;;
29380;SDS011;16364;52.490;13.326;2023-02-15T04:13:32;65.30;;;28.50;;
29380;SDS011;16364;52.490;13.326;2023-02-15T04:15:57;63.07;;;29.80;;
29380;SDS011;16364;52.490;13.326;2023-02-15T04:19:01;66.40;;;29.00;;
29380;SDS011;16364;52.490;13.326;2023-02-15T04:21:38;70.73;;;28.70;;
29380;SDS011;16364;52.490;13.326;2023-02-15T04:24:22;53.30;;;26.97;;
29380;SDS011;16364;52.490;13.326;2023-02-15T04:27:06;54.47;;;27.30;;
29380;SDS011;16364;52.490;13.326;2023-02-15T04:29:31;65.40;;;28.97;;
29380;SDS011;16364;52.490;13.326;2023-02-15T04:31:57;62.17;;;27.10;;
29380;SDS011;16364;52.490;13.326;2023-02-15T04:34:23;62.30;;;27.13;;
29380;SDS011;16364;52.490;13.326;2023-02-15T04:36:48;69.30;;;29.27;;
29380;SDS011;16364;52.490;13.326;2023-02-15T04:39:15;65.70;;;26.93;;
29380;SDS011;16364;52.490;13.326;2023-02-15T04:41:41;56.17;;;25.80;;
29380;SDS011;16364;52.490;13.326;2023-02-15T04:44:06;60.60;;;27.50;;
29380;SDS011;16364;52.490;13.326;2023-02-15T04:46:31;60.83;;;25.27;;
29380;SDS011;16364;52.490;13.326;2023-02-15T04:48:57;62.53;;;27.27;;
29380;SDS011;16364;52.490;13.326;2023-02-15T04:51:22;67.63;;;30.03;;
29380;SDS011;16364;52.490;13.326;2023-02-15T04:53:48;55.13;;;25.93;;
29380;SDS011;16364;52.490;13.326;2023-02-15T04:56:14;66.77;;;27.33;;
29380;SDS011;16364;52.490;13.326;2023-02-15T04:58:39;62.40;;;26.63;;
29380;SDS011;16364;52.490;13.326;2023-02-15T05:01:07;58.37;;;28.40;;
29380;SDS011;16364;52.490;13.326;2023-02-15T05:03:33;52.57;;;24.60;;
29380;SDS011;16364;52.490;13.326;2023-02-15T05:05:58;59.80;;;26.67;;
29380;SDS011;16364;52.490;13.326;2023-02-15T05:08:23;64.60;;;26.17;;
29380;SDS011;16364;52.490;13.326;2023-02-15T05:10:49;59.17;;;26.47;;
29380;SDS011;16364;52.490;13.326;2023-02-15T05:13:14;68.67;;;31.23;;
29380;SDS011;16364;52.490;13.326;2023-02-15T05:15:40;63.07;;;27.60;;
29380;SDS011;16364;52.490;13.326;2023-02-15T05:18:05;56.57;;;26.80;;
29380;SDS011;16364;52.490;13.326;2023-02-15T05:20:32;65.57;;;28.23;;
29380;SDS011;16364;52.490;13.326;2023-02-15T05:22:57;53.90;;;26.10;;
29380;SDS011;16364;52.490;13.326;2023-02-15T05:25:22;62.70;;;25.77;;
29380;SDS011;16364;52.490;13.326;2023-02-15T05:28:08;66.23;;;29.43;;
29380;SDS011;16364;52.490;13.326;2023-02-15T05:30:47;63.07;;;28.90;;
29380;SDS011;16364;52.490;13.326;2023-02-15T05:33:12;57.80;;;27.53;;
29380;SDS011;16364;52.490;13.326;2023-02-15T05:35:37;60.37;;;26.50;;
29380;SDS011;16364;52.490;13.326;2023-02-15T05:38:03;65.23;;;30.00;;
29380;SDS011;16364;52.490;13.326;2023-02-15T05:40:28;58.87;;;28.03;;
29380;SDS011;16364;52.490;13.326;2023-02-15T05:42:53;74.47;;;27.87;;
29380;SDS011;16364;52.490;13.326;2023-02-15T05:45:18;66.57;;;27.50;;
29380;SDS011;16364;52.490;13.326;2023-02-15T05:47:44;57.20;;;26.23;;
29380;SDS011;16364;52.490;13.326;2023-02-15T05:50:09;60.80;;;26.30;;
29380;SDS011;16364;52.490;13.326;2023-02-15T05:52:35;65.33;;;26.37;;
29380;SDS011;16364;52.490;13.326;2023-02-15T05:55:01;61.63;;;28.00;;
29380;SDS011;16364;52.490;13.326;2023-02-15T05:57:27;61.23;;;24.67;;
29380;SDS011;16364;52.490;13.326;2023-02-15T05:59:52;78.43;;;32.63;;
29380;SDS011;16364;52.490;13.326;2023-02-15T06:02:18;69.77;;;29.30;;
29380;SDS011;16364;52.490;13.326;2023-02-15T06:04:43;69.33;;;28.60;;
29380;SDS011;16364;52.490;13.326;2023-02-15T06:07:09;66.87;;;28.70;;
29380;SDS011;16364;52.490;13.326;2023-02-15T06:09:34;73.63;;;27.67;;
29380;SDS011;16364;52.490;13.326;2023-02-15T06:11:59;71.63;;;28.80;;
29380;SDS011;16364;52.490;13.326;2023-02-15T06:14:25;64.37;;;25.47;;
29380;SDS011;16364;52.490;13.326;2023-02-15T06:16:50;70.90;;;29.57;;
29380;SDS011;16364;52.490;13.326;2023-02-15T06:19:15;74.90;;;27.47;;
29380;SDS011;16364;52.490;13.326;2023-02-15T06:21:41;71.50;;;27.63;;
29380;SDS011;16364;52.490;13.326;2023-02-15T06:24:07;71.03;;;27.73;;
29380;SDS011;16364;52.490;13.326;2023-02-15T06:26:33;67.13;;;27.57;;
29380;SDS011;16364;52.490;13.326;2023-02-15T06:28:58;75.37;;;27.13;;
29380;SDS011;16364;52.490;13.326;2023-02-15T06:31:23;70.90;;;27.50;;
29380;SDS011;16364;52.490;13.326;2023-02-15T06:33:48;66.77;;;28.40;;
29380;SDS011;16364;52.490;13.326;2023-02-15T06:36:14;67.37;;;26.67;;
29380;SDS011;16364;52.490;13.326;2023-02-15T06:38:39;70.07;;;27.13;;
29380;SDS011;16364;52.490;13.326;2023-02-15T06:41:04;69.77;;;28.63;;
29380;SDS011;16364;52.490;13.326;2023-02-15T06:43:30;59.57;;;24.77;;
29380;SDS011;16364;52.490;13.326;2023-02-15T06:45:55;66.60;;;26.67;;
29380;SDS011;16364;52.490;13.326;2023-02-15T06:48:20;70.93;;;26.77;;
29380;SDS011;16364;52.490;13.326;2023-02-15T06:50:45;76.70;;;29.10;;
29380;SDS011;16364;52.490;13.326;2023-02-15T06:53:10;77.10;;;28.70;;
29380;SDS011;16364;52.490;13.326;2023-02-15T06:55:36;61.60;;;26.73;;
29380;SDS011;16364;52.490;13.326;2023-02-15T06:58:01;71.33;;;28.07;;
29380;SDS011;16364;52.490;13.326;2023-02-15T07:00:26;65.03;;;25.17;;
29380;SDS011;16364;52.490;13.326;2023-02-15T07:02:55;71.77;;;28.20;;
29380;SDS011;16364;52.490;13.326;2023-02-15T07:05:21;67.27;;;28.37;;
29380;SDS011;16364;52.490;13.326;2023-02-15T07:07:46;73.50;;;28.00;;
29380;SDS011;16364;52.490;13.326;2023-02-15T07:10:11;71.73;;;27.90;;
29380;SDS011;16364;52.490;13.326;2023-02-15T07:12:36;55.20;;;24.77;;
29380;SDS011;16364;52.490;13.326;2023-02-15T07:15:09;66.40;;;28.07;;
29380;SDS011;16364;52.490;13.326;2023-02-15T07:17:35;56.33;;;26.10;;
29380;SDS011;16364;52.490;13.326;2023-02-15T07:20:02;61.70;;;26.80;;
29380;SDS011;16364;52.490;13.326;2023-02-15T07:22:27;65.40;;;27.63;;
29380;SDS011;16364;52.490;13.326;2023-02-15T07:24:53;62.07;;;28.10;;
29380;SDS011;16364;52.490;13.326;2023-02-15T07:27:19;57.83;;;24.43;;
29380;SDS011;16364;52.490;13.326;2023-02-15T07:29:45;72.47;;;29.40;;
29380;SDS011;16364;52.490;13.326;2023-02-15T07:32:10;65.80;;;27.30;;
29380;SDS011;16364;52.490;13.326;2023-02-15T07:34:35;58.70;;;25.30;;
29380;SDS011;16364;52.490;13.326;2023-02-15T07:37:00;60.87;;;26.67;;
29380;SDS011;16364;52.490;13.326;2023-02-15T07:39:25;62.07;;;25.57;;
29380;SDS011;16364;52.490;13.326;2023-02-15T07:41:51;63.90;;;27.30;;
29380;SDS011;16364;52.490;13.326;2023-02-15T07:44:16;59.87;;;24.63;;
29380;SDS011;16364;52.490;13.326;2023-02-15T07:46:41;65.00;;;25.17;;
29380;SDS011;16364;52.490;13.326;2023-02-15T07:49:06;52.97;;;23.33;;
29380;SDS011;16364;52.490;13.326;2023-02-15T07:51:32;53.77;;;24.47;;
29380;SDS011;16364;52.490;13.326;2023-02-15T07:53:57;57.73;;;26.37;;
29380;SDS011;16364;52.490;13.326;2023-02-15T07:56:22;60.13;;;27.17;;
29380;SDS011;16364;52.490;13.326;2023-02-15T07:58:48;57.70;;;29.40;;
29380;SDS011;16364;52.490;13.326;2023-02-15T08:01:16;51.67;;;25.30;;
29380;SDS011;16364;52.490;13.326;2023-02-15T08:03:42;56.47;;;24.00;;
29380;SDS011;16364;52.490;13.326;2023-02-15T08:06:07;57.37;;;26.83;;
29380;SDS011;16364;52.490;13.326;2023-02-15T08:08:33;58.83;;;25.93;;
29380;SDS011;16364;52.490;13.326;2023-02-15T08:11:03;49.00;;;23.87;;
29380;SDS011;16364;52.490;13.326;2023-02-15T08:13:47;48.17;;;23.00;;
29380;SDS011;16364;52.490;13.326;2023-02-15T08:16:19;47.43;;;25.00;;
29380;SDS011;16364;52.490;13.326;2023-02-15T08:18:44;52.07;;;23.70;;
29380;SDS011;16364;52.490;13.326;2023-02-15T08:21:09;54.13;;;25.77;;
29380;SDS011;16364;52.490;13.326;2023-02-15T08:23:35;50.93;;;23.07;;
29380;SDS011;16364;52.490;13.326;2023-02-15T08:26:00;51.60;;;23.43;;
29380;SDS011;16364;52.490;13.326;2023-02-15T08:28:25;52.33;;;23.23;;
29380;SDS011;16364;52.490;13.326;2023-02-15T08:30:50;54.07;;;26.17;;
29380;SDS011;16364;52.490;13.326;2023-02-15T08:33:16;59.57;;;27.10;;
29380;SDS011;16364;52.490;13.326;2023-02-15T08:35:43;53.83;;;24.80;;
29380;SDS011;16364;52.490;13.326;2023-02-15T08:38:08;54.67;;;24.63;;
29380;SDS011;16364;52.490;13.326;2023-02-15T08:40:33;58.83;;;27.40;;
29380;SDS011;16364;52.490;13.326;2023-02-15T08:42:59;46.87;;;23.07;;
29380;SDS011;16364;52.490;13.326;2023-02-15T08:45:24;53.57;;;23.67;;
29380;SDS011;16364;52.490;13.326;2023-02-15T08:47:50;56.00;;;24.73;;
29380;SDS011;16364;52.490;13.326;2023-02-15T08:50:15;52.47;;;24.90;;
29380;SDS011;16364;52.490;13.326;2023-02-15T08:52:40;45.23;;;22.40;;
29380;SDS011;16364;52.490;13.326;2023-02-15T08:55:06;46.13;;;22.40;;
29380;SDS011;16364;52.490;13.326;2023-02-15T08:57:31;55.30;;;23.07;;
29380;SDS011;16364;52.490;13.326;2023-02-15T08:59:56;43.63;;;21.83;;
29380;SDS011;16364;52.490;13.326;2023-02-15T09:02:21;47.23;;;23.10;;
29380;SDS011;16364;52.490;13.326;2023-02-15T09:04:47;58.83;;;26.40;;
29380;SDS011;16364;52.490;13.326;2023-02-15T09:07:12;44.63;;;23.60;;
29380;SDS011;16364;52.490;13.326;2023-02-15T09:09:37;48.70;;;23.73;;
29380;SDS011;16364;52.490;13.326;2023-02-15T09:12:03;38.50;;;22.17;;
29380;SDS011;16364;52.490;13.326;2023-02-15T09:14:28;42.07;;;23.77;;
29380;SDS011;16364;52.490;13.326;2023-02-15T09:16:53;45.30;;;23.43;;
29380;SDS011;16364;52.490;13.326;2023-02-15T09:19:19;48.83;;;22.70;;
29380;SDS011;16364;52.490;13.326;2023-02-15T09:21:45;38.80;;;21.20;;
29380;SDS011;16364;52.490;13.326;2023-02-15T09:24:11;39.27;;;19.97;;
29380;SDS011;16364;52.490;13.326;2023-02-15T09:26:38;47.50;;;21.37;;
29380;SDS011;16364;52.490;13.326;2023-02-15T09:29:05;36.43;;;19.87;;
29380;SDS011;16364;52.490;13.326;2023-02-15T09:31:31;36.97;;;19.73;;
29380;SDS011;16364;52.490;13.326;2023-02-15T09:33:58;39.17;;;19.73;;
29380;SDS011;16364;52.490;13.326;2023-02-15T09:36:25;37.13;;;18.80;;
29380;SDS011;16364;52.490;13.326;2023-02-15T09:38:55;32.27;;;19.27;;
29380;SDS011;16364;52.490;13.326;2023-02-15T09:41:29;37.90;;;21.40;;
29380;SDS011;16364;52.490;13.326;2023-02-15T09:49:21;38.73;;;19.70;;
29380;SDS011;16364;52.490;13.326;2023-02-15T09:52:12;35.20;;;17.97;;
29380;SDS011;16364;52.490;13.326;2023-02-15T09:57:08;41.70;;;21.60;;
29380;SDS011;16364;52.490;13.326;2023-02-15T10:28:20;34.60;;;21.57;;
29380;SDS011;16364;52.490;13.326;2023-02-15T10:30:49;41.07;;;19.27;;
29380;SDS011;16364;52.490;13.326;2023-02-15T10:38:46;37.70;;;20.70;;
29380;SDS011;16364;52.490;13.326;2023-02-15T10:49:01;36.00;;;19.27;;
29380;SDS011;16364;52.490;13.326;2023-02-15T10:51:32;35.60;;;20.90;;
29380;SDS011;16364;52.490;13.326;2023-02-15T10:59:39;33.67;;;19.53;;
29380;SDS011;16364;52.490;13.326;2023-02-15T11:07:15;37.43;;;20.37;;
29380;SDS011;16364;52.490;13.326;2023-02-15T11:09:42;36.03;;;19.20;;
29380;SDS011;16364;52.490;13.326;2023-02-15T11:12:10;37.77;;;21.20;;
29380;SDS011;16364;52.490;13.326;2023-02-15T11:14:38;35.47;;;19.23;;
29380;SDS011;16364;52.490;13.326;2023-02-15T11:17:10;41.67;;;20.40;;
29380;SDS011;16364;52.490;13.326;2023-02-15T11:19:41;43.27;;;22.83;;
29380;SDS011;16364;52.490;13.326;2023-02-15T11:22:09;37.50;;;20.60;;
29380;SDS011;16364;52.490;13.326;2023-02-15T11:24:37;40.37;;;21.40;;
29380;SDS011;16364;52.490;13.326;2023-02-15T11:27:16;34.20;;;20.60;;
29380;SDS011;16364;52.490;13.326;2023-02-15T11:29:50;33.80;;;18.10;;
29380;SDS011;16364;52.490;13.326;2023-02-15T11:34:59;32.60;;;19.50;;
29380;SDS011;16364;52.490;13.326;2023-02-15T11:40:03;34.00;;;19.33;;
29380;SDS011;16364;52.490;13.326;2023-02-15T11:42:38;31.17;;;18.13;;
29380;SDS011;16364;52.490;13.326;2023-02-15T11:45:26;32.97;;;17.97;;
29380;SDS011;16364;52.490;13.326;2023-02-15T11:47:52;35.03;;;19.40;;
29380;SDS011;16364;52.490;13.326;2023-02-15T11:50:20;33.30;;;18.13;;
29380;SDS011;16364;52.490;13.326;2023-02-15T11:52:47;37.53;;;20.93;;
29380;SDS011;16364;52.490;13.326;2023-02-15T11:55:14;33.37;;;20.23;;
29380;SDS011;16364;52.490;13.326;2023-02-15T11:57:42;30.33;;;20.80;;
29380;SDS011;16364;52.490;13.326;2023-02-15T12:02:45;34.30;;;18.30;;
29380;SDS011;16364;52.490;13.326;2023-02-15T12:05:13;27.50;;;15.13;;
29380;SDS011;16364;52.490;13.326;2023-02-15T12:07:42;22.30;;;15.00;;
29380;SDS011;16364;52.490;13.326;2023-02-15T12:10:21;30.53;;;17.53;;
29380;SDS011;16364;52.490;13.326;2023-02-15T12:12:47;31.17;;;17.63;;
29380;SDS011;16364;52.490;13.326;2023-02-15T12:15:12;31.73;;;17.83;;
29380;SDS011;16364;52.490;13.326;2023-02-15T12:20:04;27.77;;;18.10;;
29380;SDS011;16364;52.490;13.326;2023-02-15T12:22:32;27.60;;;17.90;;
29380;SDS011;16364;52.490;13.326;2023-02-15T12:25:02;28.47;;;16.83;;
29380;SDS011;16364;52.490;13.326;2023-02-15T12:27:29;26.47;;;16.40;;
29380;SDS011;16364;52.490;13.326;2023-02-15T12:29:59;28.97;;;16.90;;
29380;SDS011;16364;52.490;13.326;2023-02-15T12:32:27;25.20;;;17.13;;
29380;SDS011;16364;52.490;13.326;2023-02-15T12:37:37;29.90;;;16.50;;
29380;SDS011;16364;52.490;13.326;2023-02-15T12:40:18;18.97;;;13.50;;
29380;SDS011;16364;52.490;13.326;2023-02-15T12:42:44;24.80;;;15.50;;
29380;SDS011;16364;52.490;13.326;2023-02-15T12:47:46;21.27;;;14.53;;
29380;SDS011;16364;52.490;13.326;2023-02-15T12:50:31;22.33;;;14.80;;
29380;SDS011;16364;52.490;13.326;2023-02-15T12:53:08;20.23;;;13.87;;
29380;SDS011;16364;52.490;13.326;2023-02-15T12:55:37;22.63;;;15.30;;
29380;SDS011;16364;52.490;13.326;2023-02-15T12:58:18;21.87;;;14.07;;
29380;SDS011;16364;52.490;13.326;2023-02-15T13:00:45;19.50;;;13.90;;
29380;SDS011;16364;52.490;13.326;2023-02-15T13:03:18;22.57;;;15.67;;
29380;SDS011;16364;52.490;13.326;2023-02-15T13:05:44;19.23;;;14.30;;
29380;SDS011;16364;52.490;13.326;2023-02-15T13:08:12;19.20;;;14.13;;
29380;SDS011;16364;52.490;13.326;2023-02-15T13:10:40;21.97;;;15.13;;
29380;SDS011;16364;52.490;13.326;2023-02-15T13:13:10;23.60;;;16.03;;
29380;SDS011;16364;52.490;13.326;2023-02-15T13:15:36;22.83;;;15.57;;
29380;SDS011;16364;52.490;13.326;2023-02-15T13:18:03;20.27;;;13.53;;
29380;SDS011;16364;52.490;13.326;2023-02-15T13:20:29;34.33;;;14.63;;
29380;SDS011;16364;52.490;13.326;2023-02-15T13:22:58;15.33;;;11.40;;
29380;SDS011;16364;52.490;13.326;2023-02-15T13:25:25;21.20;;;14.07;;
29380;SDS011;16364;52.490;13.326;2023-02-15T13:27:53;18.57;;;13.83;;
29380;SDS011;16364;52.490;13.326;2023-02-15T13:32:44;21.50;;;15.43;;
29380;SDS011;16364;52.490;13.326;2023-02-15T13:35:13;17.33;;;13.10;;
29380;SDS011;16364;52.490;13.326;2023-02-15T13:43:11;22.93;;;13.53;;
29380;SDS011;16364;52.490;13.326;2023-02-15T13:45:32;14.20;;;12.27;;
29380;SDS011;16364;52.490;13.326;2023-02-15T13:48:20;20.27;;;14.60;;
29380;SDS011;16364;52.490;13.326;2023-02-15T13:53:23;16.77;;;12.90;;
29380;SDS011;16364;52.490;13.326;2023-02-15T13:58:30;18.50;;;14.03;;
29380;SDS011;16364;52.490;13.326;2023-02-15T14:01:04;19.07;;;14.43;;
29380;SDS011;16364;52.490;13.326;2023-02-15T14:03:45;14.30;;;11.90;;
29380;SDS011;16364;52.490;13.326;2023-02-15T14:08:49;15.00;;;12.00;;
29380;SDS011;16364;52.490;13.326;2023-02-15T14:21:44;14.90;;;12.30;;
29380;SDS011;16364;52.490;13.326;2023-02-15T14:24:15;15.73;;;13.13;;
29380;SDS011;16364;52.490;13.326;2023-02-15T14:29:23;18.47;;;12.63;;
29380;SDS011;16364;52.490;13.326;2023-02-15T14:32:04;13.30;;;11.30;;
29380;SDS011;16364;52.490;13.326;2023-02-15T14:34:40;14.30;;;12.17;;
29380;SDS011;16364;52.490;13.326;2023-02-15T14:37:08;15.43;;;12.33;;
29380;SDS011;16364;52.490;13.326;2023-02-15T14:42:38;15.30;;;12.23;;
29380;SDS011;16364;52.490;13.326;2023-02-15T14:45:25;14.23;;;10.87;;
29380;SDS011;16364;52.490;13.326;2023-02-15T14:50:37;15.10;;;12.33;;
29380;SDS011;16364;52.490;13.326;2023-02-15T14:55:47;15.53;;;12.20;;
29380;SDS011;16364;52.490;13.326;2023-02-15T14:58:12;15.37;;;11.27;;
29380;SDS011;16364;52.490;13.326;2023-02-15T15:00:39;13.27;;;11.43;;
29380;SDS011;16364;52.490;13.326;2023-02-15T15:03:10;17.13;;;11.27;;
29380;SDS011;16364;52.490;13.326;2023-02-15T15:05:35;15.93;;;11.67;;
29380;SDS011;16364;52.490;13.326;2023-02-15T15:08:19;13.70;;;11.93;;
29380;SDS011;16364;52.490;13.326;2023-02-15T15:10:46;18.93;;;13.47;;
29380;SDS011;16364;52.490;13.326;2023-02-15T15:13:51;13.80;;;11.10;;
29380;SDS011;16364;52.490;13.326;2023-02-15T15:18:47;14.70;;;10.30;;
29380;SDS011;16364;52.490;13.326;2023-02-15T15:23:57;15.13;;;9.70;;
29380;SDS011;16364;52.490;13.326;2023-02-15T15:34:14;14.20;;;10.00;;
29380;SDS011;16364;52.490;13.326;2023-02-15T15:37:46;14.27;;;9.73;;
29380;SDS011;16364;52.490;13.326;2023-02-15T15:39:47;13.47;;;10.70;;
29380;SDS011;16364;52.490;13.326;2023-02-15T15:43:03;14.43;;;9.70;;
29380;SDS011;16364;52.490;13.326;2023-02-15T15:50:10;12.53;;;10.07;;
29380;SDS011;16364;52.490;13.326;2023-02-15T15:52:36;11.80;;;9.40;;
29380;SDS011;16364;52.490;13.326;2023-02-15T15:55:04;14.20;;;10.33;;
29380;SDS011;16364;52.490;13.326;2023-02-15T15:57:38;13.67;;;9.70;;
29380;SDS011;16364;52.490;13.326;2023-02-15T16:00:04;12.00;;;8.40;;
29380;SDS011;16364;52.490;13.326;2023-02-15T16:02:50;11.33;;;8.10;;
29380;SDS011;16364;52.490;13.326;2023-02-15T16:05:16;11.57;;;9.00;;
29380;SDS011;16364;52.490;13.326;2023-02-15T16:07:41;11.30;;;8.50;;
29380;SDS011;16364;52.490;13.326;2023-02-15T16:10:07;9.97;;;8.13;;
29380;SDS011;16364;52.490;13.326;2023-02-15T16:12:33;11.30;;;9.17;;
29380;SDS011;16364;52.490;13.326;2023-02-15T16:15:04;15.70;;;9.70;;
29380;SDS011;16364;52.490;13.326;2023-02-15T16:17:36;13.03;;;9.90;;
29380;SDS011;16364;52.490;13.326;2023-02-15T16:20:06;12.93;;;8.40;;
29380;SDS011;16364;52.490;13.326;2023-02-15T16:22:32;9.83;;;7.80;;
29380;SDS011;16364;52.490;13.326;2023-02-15T16:32:44;8.40;;;7.50;;
29380;SDS011;16364;52.490;13.326;2023-02-15T16:35:13;11.17;;;7.90;;
29380;SDS011;16364;52.490;13.326;2023-02-15T16:37:39;12.07;;;8.57;;
29380;SDS011;16364;52.490;13.326;2023-02-15T16:40:04;14.03;;;8.03;;
29380;SDS011;16364;52.490;13.326;2023-02-15T16:42:30;8.33;;;7.33;;
29380;SDS011;16364;52.490;13.326;2023-02-15T16:47:39;9.50;;;7.87;;
29380;SDS011;16364;52.490;13.326;2023-02-15T16:50:05;9.17;;;8.03;;
29380;SDS011;16364;52.490;13.326;2023-02-15T16:52:30;12.47;;;9.30;;
29380;SDS011;16364;52.490;13.326;2023-02-15T16:54:57;11.27;;;8.23;;
29380;SDS011;16364;52.490;13.326;2023-02-15T16:57:27;9.87;;;7.83;;
29380;SDS011;16364;52.490;13.326;2023-02-15T16:59:54;9.40;;;8.30;;
29380;SDS011;16364;52.490;13.326;2023-02-15T17:02:23;10.97;;;8.63;;
29380;SDS011;16364;52.490;13.326;2023-02-15T17:05:02;10.97;;;8.43;;
29380;SDS011;16364;52.490;13.326;2023-02-15T17:07:27;13.00;;;8.37;;
29380;SDS011;16364;52.490;13.326;2023-02-15T17:09:54;10.63;;;9.07;;
29380;SDS011;16364;52.490;13.326;2023-02-15T17:13:20;10.67;;;8.80;;
29380;SDS011;16364;52.490;13.326;2023-02-15T17:15:28;11.97;;;9.63;;